sensor_id;sensor_type;location;lat;lon;timestamp;pressure;altitude;pressure_sealevel;temperature;humidity
12360;BME280;6244;51.460;7.090;2023-08-24T00:00:50;100837.47;;;19.82;68.61
12360;BME280;6244;51.460;7.090;2023-08-24T00:05:47;100821.00;;;19.98;69.13
12360;BME280;6244;51.460;7.090;2023-08-24T00:10:45;100822.00;;;20.07;68.63
12360;BME280;6244;51.460;7.090;2023-08-24T00:15:42;100817.50;;;19.98;68.72
12360;BME280;6244;51.460;7.090;2023-08-24T00:20:39;100816.81;;;20.05;68.89
12360;BME280;6244;51.460;7.090;2023-08-24T00:25:35;100820.47;;;20.04;68.83
12360;BME280;6244;51.460;7.090;2023-08-24T00:30:33;100815.50;;;19.90;69.57
12360;BME280;6244;51.460;7.090;2023-08-24T00:35:30;100813.13;;;19.87;69.82
12360;BME280;6244;51.460;7.090;2023-08-24T00:40:26;100803.31;;;19.87;69.42
12360;BME280;6244;51.460;7.090;2023-08-24T00:45:23;100800.41;;;19.70;70.33
12360;BME280;6244;51.460;7.090;2023-08-24T00:50:21;100796.44;;;19.85;69.93
12360;BME280;6244;51.460;7.090;2023-08-24T00:55:18;100792.94;;;19.84;69.68
12360;BME280;6244;51.460;7.090;2023-08-24T01:00:16;100790.47;;;19.72;69.77
12360;BME280;6244;51.460;7.090;2023-08-24T01:05:12;100791.78;;;19.77;69.72
12360;BME280;6244;51.460;7.090;2023-08-24T01:10:11;100796.13;;;19.78;69.56
12360;BME280;6244;51.460;7.090;2023-08-24T01:15:13;100799.19;;;19.74;69.35
12360;BME280;6244;51.460;7.090;2023-08-24T01:20:10;100786.72;;;19.74;69.16
12360;BME280;6244;51.460;7.090;2023-08-24T01:25:15;100774.19;;;19.65;69.63
12360;BME280;6244;51.460;7.090;2023-08-24T01:30:13;100773.16;;;19.56;69.65
12360;BME280;6244;51.460;7.090;2023-08-24T01:35:10;100780.78;;;19.40;70.17
12360;BME280;6244;51.460;7.090;2023-08-24T01:40:12;100778.75;;;19.53;70.14
12360;BME280;6244;51.460;7.090;2023-08-24T01:45:13;100782.06;;;19.46;69.64
12360;BME280;6244;51.460;7.090;2023-08-24T01:50:11;100783.31;;;19.21;70.58
12360;BME280;6244;51.460;7.090;2023-08-24T01:55:08;100792.41;;;19.18;71.56
12360;BME280;6244;51.460;7.090;2023-08-24T02:00:06;100769.16;;;19.41;70.68
12360;BME280;6244;51.460;7.090;2023-08-24T02:05:05;100762.03;;;19.21;70.18
12360;BME280;6244;51.460;7.090;2023-08-24T02:10:02;100745.66;;;18.63;72.13
12360;BME280;6244;51.460;7.090;2023-08-24T02:14:59;100755.50;;;18.51;73.90
12360;BME280;6244;51.460;7.090;2023-08-24T02:19:55;100754.72;;;18.92;72.13
12360;BME280;6244;51.460;7.090;2023-08-24T02:24:53;100752.78;;;19.15;71.47
12360;BME280;6244;51.460;7.090;2023-08-24T02:29:49;100768.38;;;19.08;70.92
12360;BME280;6244;51.460;7.090;2023-08-24T02:34:46;100756.00;;;19.19;70.92
12360;BME280;6244;51.460;7.090;2023-08-24T02:39:43;100736.59;;;19.28;70.52
12360;BME280;6244;51.460;7.090;2023-08-24T02:44:40;100748.59;;;19.22;69.98
12360;BME280;6244;51.460;7.090;2023-08-24T02:49:37;100754.53;;;19.05;70.29
12360;BME280;6244;51.460;7.090;2023-08-24T02:54:34;100748.63;;;19.01;70.76
12360;BME280;6244;51.460;7.090;2023-08-24T02:59:30;100740.19;;;19.17;70.83
12360;BME280;6244;51.460;7.090;2023-08-24T03:04:29;100754.25;;;19.08;70.77
12360;BME280;6244;51.460;7.090;2023-08-24T03:09:25;100754.72;;;19.13;70.97
12360;BME280;6244;51.460;7.090;2023-08-24T03:14:22;100771.13;;;18.97;71.30
12360;BME280;6244;51.460;7.090;2023-08-24T03:19:18;100747.38;;;19.05;71.40
12360;BME280;6244;51.460;7.090;2023-08-24T03:24:17;100743.50;;;18.89;70.69
12360;BME280;6244;51.460;7.090;2023-08-24T03:29:13;100746.28;;;18.87;71.51
12360;BME280;6244;51.460;7.090;2023-08-24T03:34:10;100741.09;;;19.06;71.41
12360;BME280;6244;51.460;7.090;2023-08-24T03:39:06;100743.81;;;19.16;71.43
12360;BME280;6244;51.460;7.090;2023-08-24T03:44:04;100753.47;;;19.17;71.33
12360;BME280;6244;51.460;7.090;2023-08-24T03:49:01;100763.97;;;19.19;71.33
12360;BME280;6244;51.460;7.090;2023-08-24T03:53:57;100760.22;;;19.21;71.17
12360;BME280;6244;51.460;7.090;2023-08-24T03:58:54;100777.34;;;18.87;72.51
12360;BME280;6244;51.460;7.090;2023-08-24T04:03:51;100776.97;;;19.12;72.30
12360;BME280;6244;51.460;7.090;2023-08-24T04:08:48;100763.91;;;19.30;71.85
12360;BME280;6244;51.460;7.090;2023-08-24T04:13:44;100737.63;;;19.36;71.66
12360;BME280;6244;51.460;7.090;2023-08-24T04:18:41;100722.63;;;19.35;71.06
12360;BME280;6244;51.460;7.090;2023-08-24T04:23:39;100725.06;;;19.18;71.70
12360;BME280;6244;51.460;7.090;2023-08-24T04:28:40;100719.72;;;18.87;72.75
12360;BME280;6244;51.460;7.090;2023-08-24T04:33:37;100716.47;;;18.52;75.14
12360;BME280;6244;51.460;7.090;2023-08-24T04:38:33;100713.19;;;18.27;78.08
12360;BME280;6244;51.460;7.090;2023-08-24T04:43:31;100709.06;;;17.91;79.60
12360;BME280;6244;51.460;7.090;2023-08-24T04:48:29;100717.28;;;17.54;81.98
12360;BME280;6244;51.460;7.090;2023-08-24T04:53:28;100700.28;;;17.35;82.34
12360;BME280;6244;51.460;7.090;2023-08-24T04:58:24;100665.91;;;16.88;84.10
12360;BME280;6244;51.460;7.090;2023-08-24T05:03:23;100667.97;;;17.07;85.20
12360;BME280;6244;51.460;7.090;2023-08-24T05:08:19;100663.50;;;17.41;83.64
12360;BME280;6244;51.460;7.090;2023-08-24T05:13:16;100660.00;;;17.74;82.53
12360;BME280;6244;51.460;7.090;2023-08-24T05:18:12;100648.44;;;17.42;80.79
12360;BME280;6244;51.460;7.090;2023-08-24T05:23:10;100640.22;;;17.33;80.48
12360;BME280;6244;51.460;7.090;2023-08-24T05:28:07;100624.94;;;17.26;80.75
12360;BME280;6244;51.460;7.090;2023-08-24T05:33:04;100597.16;;;17.75;82.81
12360;BME280;6244;51.460;7.090;2023-08-24T05:38:01;100585.78;;;18.05;81.37
12360;BME280;6244;51.460;7.090;2023-08-24T05:42:59;100599.41;;;18.11;77.41
12360;BME280;6244;51.460;7.090;2023-08-24T05:47:55;100617.09;;;18.22;79.33
12360;BME280;6244;51.460;7.090;2023-08-24T05:52:52;100607.97;;;18.57;78.92
12360;BME280;6244;51.460;7.090;2023-08-24T05:57:48;100612.81;;;18.31;78.09
12360;BME280;6244;51.460;7.090;2023-08-24T06:02:46;100605.13;;;18.28;78.33
12360;BME280;6244;51.460;7.090;2023-08-24T06:07:43;100613.19;;;18.05;80.82
12360;BME280;6244;51.460;7.090;2023-08-24T06:12:40;100613.28;;;17.83;83.03
12360;BME280;6244;51.460;7.090;2023-08-24T06:17:37;100601.53;;;18.17;83.25
12360;BME280;6244;51.460;7.090;2023-08-24T06:22:35;100597.91;;;18.60;83.23
12360;BME280;6244;51.460;7.090;2023-08-24T06:27:31;100598.66;;;18.93;83.36
12360;BME280;6244;51.460;7.090;2023-08-24T06:32:28;100607.72;;;19.11;83.59
12360;BME280;6244;51.460;7.090;2023-08-24T06:37:24;100602.69;;;19.18;83.63
12360;BME280;6244;51.460;7.090;2023-08-24T06:42:22;100604.25;;;19.30;81.25
12360;BME280;6244;51.460;7.090;2023-08-24T06:47:19;100599.81;;;19.40;81.91
12360;BME280;6244;51.460;7.090;2023-08-24T06:52:15;100584.56;;;19.52;81.06
12360;BME280;6244;51.460;7.090;2023-08-24T06:57:12;100589.75;;;19.53;81.42
12360;BME280;6244;51.460;7.090;2023-08-24T07:02:10;100598.09;;;19.60;81.06
12360;BME280;6244;51.460;7.090;2023-08-24T07:07:06;100590.25;;;19.78;80.50
12360;BME280;6244;51.460;7.090;2023-08-24T07:12:03;100577.22;;;19.94;78.32
12360;BME280;6244;51.460;7.090;2023-08-24T07:17:02;100576.91;;;20.07;79.32
12360;BME280;6244;51.460;7.090;2023-08-24T07:22:00;100574.94;;;20.28;78.38
12360;BME280;6244;51.460;7.090;2023-08-24T07:26:56;100574.91;;;20.57;76.64
12360;BME280;6244;51.460;7.090;2023-08-24T07:31:54;100581.00;;;20.87;74.44
12360;BME280;6244;51.460;7.090;2023-08-24T07:36:50;100569.72;;;21.20;72.55
12360;BME280;6244;51.460;7.090;2023-08-24T07:41:48;100552.75;;;21.49;71.64
12360;BME280;6244;51.460;7.090;2023-08-24T07:46:47;100551.38;;;21.80;70.79
12360;BME280;6244;51.460;7.090;2023-08-24T07:51:44;100544.69;;;22.20;69.27
12360;BME280;6244;51.460;7.090;2023-08-24T07:56:42;100538.81;;;22.68;66.51
12360;BME280;6244;51.460;7.090;2023-08-24T08:01:40;100542.63;;;23.26;65.03
12360;BME280;6244;51.460;7.090;2023-08-24T08:06:37;100555.31;;;24.07;63.58
12360;BME280;6244;51.460;7.090;2023-08-24T08:11:33;100543.63;;;24.79;60.89
12360;BME280;6244;51.460;7.090;2023-08-24T08:16:30;100552.06;;;25.46;53.64
12360;BME280;6244;51.460;7.090;2023-08-24T08:21:28;100553.38;;;26.04;52.38
12360;BME280;6244;51.460;7.090;2023-08-24T08:26:25;100555.53;;;27.99;49.82
12360;BME280;6244;51.460;7.090;2023-08-24T08:31:22;100534.09;;;30.10;42.17
12360;BME280;6244;51.460;7.090;2023-08-24T08:36:19;100531.44;;;30.95;39.88
12360;BME280;6244;51.460;7.090;2023-08-24T08:41:18;100513.47;;;31.01;37.63
12360;BME280;6244;51.460;7.090;2023-08-24T08:46:17;100523.81;;;31.93;37.36
12360;BME280;6244;51.460;7.090;2023-08-24T08:51:14;100528.44;;;32.11;34.63
12360;BME280;6244;51.460;7.090;2023-08-24T08:56:12;100514.28;;;32.34;36.75
12360;BME280;6244;51.460;7.090;2023-08-24T09:01:10;100509.97;;;32.01;35.24
12360;BME280;6244;51.460;7.090;2023-08-24T09:06:07;100494.75;;;32.43;35.30
12360;BME280;6244;51.460;7.090;2023-08-24T09:11:03;100481.53;;;32.29;34.87
12360;BME280;6244;51.460;7.090;2023-08-24T09:16:03;100456.03;;;32.66;34.85
12360;BME280;6244;51.460;7.090;2023-08-24T09:21:07;100456.31;;;33.25;34.33
12360;BME280;6244;51.460;7.090;2023-08-24T09:26:04;100442.16;;;34.00;33.63
12360;BME280;6244;51.460;7.090;2023-08-24T09:31:01;100423.56;;;34.08;34.06
12360;BME280;6244;51.460;7.090;2023-08-24T09:35:58;100413.13;;;33.70;31.17
12360;BME280;6244;51.460;7.090;2023-08-24T09:41:01;100395.97;;;33.58;32.33
12360;BME280;6244;51.460;7.090;2023-08-24T09:45:58;100380.72;;;33.04;34.54
12360;BME280;6244;51.460;7.090;2023-08-24T09:50:56;100374.53;;;32.96;32.61
12360;BME280;6244;51.460;7.090;2023-08-24T09:55:54;100377.25;;;32.96;34.29
12360;BME280;6244;51.460;7.090;2023-08-24T10:00:52;100377.94;;;31.64;32.88
12360;BME280;6244;51.460;7.090;2023-08-24T10:05:51;100391.41;;;31.27;34.32
12360;BME280;6244;51.460;7.090;2023-08-24T10:10:52;100403.72;;;30.85;34.04
12360;BME280;6244;51.460;7.090;2023-08-24T10:15:49;100412.81;;;30.97;34.23
12360;BME280;6244;51.460;7.090;2023-08-24T10:20:49;100427.28;;;31.54;33.66
12360;BME280;6244;51.460;7.090;2023-08-24T10:25:46;100417.47;;;30.90;34.20
12360;BME280;6244;51.460;7.090;2023-08-24T10:30:44;100423.63;;;31.04;36.29
12360;BME280;6244;51.460;7.090;2023-08-24T10:35:41;100431.97;;;31.65;36.87
12360;BME280;6244;51.460;7.090;2023-08-24T10:40:40;100420.44;;;31.45;34.29
12360;BME280;6244;51.460;7.090;2023-08-24T10:45:58;100412.28;;;31.20;36.66
12360;BME280;6244;51.460;7.090;2023-08-24T10:51:17;100415.50;;;31.35;35.26
12360;BME280;6244;51.460;7.090;2023-08-24T10:56:17;100417.25;;;31.23;36.73
12360;BME280;6244;51.460;7.090;2023-08-24T11:01:15;100404.63;;;31.42;35.15
12360;BME280;6244;51.460;7.090;2023-08-24T11:06:19;100407.06;;;31.18;37.65
12360;BME280;6244;51.460;7.090;2023-08-24T11:11:22;100412.28;;;31.51;34.12
12360;BME280;6244;51.460;7.090;2023-08-24T11:16:41;100394.06;;;30.64;36.46
12360;BME280;6244;51.460;7.090;2023-08-24T11:21:38;100398.19;;;30.60;37.95
12360;BME280;6244;51.460;7.090;2023-08-24T11:26:39;100382.38;;;30.50;37.46
12360;BME280;6244;51.460;7.090;2023-08-24T11:31:36;100358.47;;;29.63;37.60
12360;BME280;6244;51.460;7.090;2023-08-24T11:36:41;100353.03;;;29.10;39.81
12360;BME280;6244;51.460;7.090;2023-08-24T11:41:39;100351.84;;;28.58;41.63
12360;BME280;6244;51.460;7.090;2023-08-24T11:46:36;100346.88;;;28.14;42.67
12360;BME280;6244;51.460;7.090;2023-08-24T11:51:36;100356.25;;;27.83;43.92
12360;BME280;6244;51.460;7.090;2023-08-24T11:56:33;100385.63;;;27.71;45.00
12360;BME280;6244;51.460;7.090;2023-08-24T12:01:32;100387.88;;;27.46;46.50
12360;BME280;6244;51.460;7.090;2023-08-24T12:06:29;100388.31;;;27.50;46.45
12360;BME280;6244;51.460;7.090;2023-08-24T12:11:25;100375.16;;;27.40;47.16
12360;BME280;6244;51.460;7.090;2023-08-24T12:16:22;100375.09;;;27.55;45.65
12360;BME280;6244;51.460;7.090;2023-08-24T12:21:21;100376.56;;;27.58;46.37
12360;BME280;6244;51.460;7.090;2023-08-24T12:26:18;100366.22;;;27.61;46.57
12360;BME280;6244;51.460;7.090;2023-08-24T12:31:16;100348.72;;;27.23;47.32
12360;BME280;6244;51.460;7.090;2023-08-24T12:36:13;100337.00;;;27.37;47.64
12360;BME280;6244;51.460;7.090;2023-08-24T12:41:11;100323.72;;;27.07;47.95
12360;BME280;6244;51.460;7.090;2023-08-24T12:46:08;100295.41;;;26.97;50.21
12360;BME280;6244;51.460;7.090;2023-08-24T12:51:04;100293.50;;;26.69;49.94
12360;BME280;6244;51.460;7.090;2023-08-24T12:56:01;100297.16;;;25.96;53.03
12360;BME280;6244;51.460;7.090;2023-08-24T13:00:59;100272.84;;;25.30;55.54
12360;BME280;6244;51.460;7.090;2023-08-24T13:05:55;100253.09;;;25.00;56.84
12360;BME280;6244;51.460;7.090;2023-08-24T13:10:52;100222.53;;;24.86;57.56
12360;BME280;6244;51.460;7.090;2023-08-24T13:15:49;100212.34;;;24.82;59.54
12360;BME280;6244;51.460;7.090;2023-08-24T13:20:47;100237.88;;;25.01;60.63
12360;BME280;6244;51.460;7.090;2023-08-24T13:25:44;100230.59;;;25.54;60.14
12360;BME280;6244;51.460;7.090;2023-08-24T13:30:40;100223.34;;;25.98;59.25
12360;BME280;6244;51.460;7.090;2023-08-24T13:35:38;100232.22;;;26.14;55.46
12360;BME280;6244;51.460;7.090;2023-08-24T13:40:36;100242.44;;;26.18;55.40
12360;BME280;6244;51.460;7.090;2023-08-24T13:45:32;100243.44;;;26.17;56.13
12360;BME280;6244;51.460;7.090;2023-08-24T13:50:30;100246.63;;;26.06;56.47
12360;BME280;6244;51.460;7.090;2023-08-24T13:55:26;100277.69;;;25.94;55.59
12360;BME280;6244;51.460;7.090;2023-08-24T14:00:25;100246.19;;;25.88;56.62
12360;BME280;6244;51.460;7.090;2023-08-24T14:05:21;100238.13;;;25.88;55.81
12360;BME280;6244;51.460;7.090;2023-08-24T14:10:18;100273.00;;;25.81;56.95
12360;BME280;6244;51.460;7.090;2023-08-24T14:15:14;100262.03;;;25.68;57.33
12360;BME280;6244;51.460;7.090;2023-08-24T14:20:12;100269.16;;;25.61;58.77
12360;BME280;6244;51.460;7.090;2023-08-24T14:25:09;100252.19;;;25.45;60.05
12360;BME280;6244;51.460;7.090;2023-08-24T14:30:07;100241.16;;;25.40;61.08
12360;BME280;6244;51.460;7.090;2023-08-24T14:35:04;100233.84;;;25.34;61.33
12360;BME280;6244;51.460;7.090;2023-08-24T14:40:02;100239.75;;;25.30;61.08
12360;BME280;6244;51.460;7.090;2023-08-24T14:45:00;100235.78;;;25.26;61.83
12360;BME280;6244;51.460;7.090;2023-08-24T14:49:56;100241.53;;;25.00;62.80
12360;BME280;6244;51.460;7.090;2023-08-24T14:54:53;100242.97;;;24.87;63.17
12360;BME280;6244;51.460;7.090;2023-08-24T14:59:51;100247.47;;;24.72;65.03
12360;BME280;6244;51.460;7.090;2023-08-24T15:04:47;100255.94;;;24.61;64.73
12360;BME280;6244;51.460;7.090;2023-08-24T15:09:44;100264.25;;;24.43;66.21
12360;BME280;6244;51.460;7.090;2023-08-24T15:14:57;100251.78;;;24.27;67.33
12360;BME280;6244;51.460;7.090;2023-08-24T15:19:55;100261.56;;;24.12;68.66
12360;BME280;6244;51.460;7.090;2023-08-24T15:24:52;100239.41;;;23.95;69.53
12360;BME280;6244;51.460;7.090;2023-08-24T15:29:48;100227.91;;;23.79;69.97
12360;BME280;6244;51.460;7.090;2023-08-24T15:34:48;100243.38;;;23.52;71.49
12360;BME280;6244;51.460;7.090;2023-08-24T15:39:45;100242.59;;;23.27;69.92
12360;BME280;6244;51.460;7.090;2023-08-24T15:44:42;100234.59;;;23.03;70.60
12360;BME280;6244;51.460;7.090;2023-08-24T15:49:39;100235.09;;;22.90;70.23
12360;BME280;6244;51.460;7.090;2023-08-24T15:54:37;100255.34;;;22.84;71.12
12360;BME280;6244;51.460;7.090;2023-08-24T15:59:34;100260.00;;;22.82;71.36
12360;BME280;6244;51.460;7.090;2023-08-24T16:04:30;100257.94;;;22.36;74.58
12360;BME280;6244;51.460;7.090;2023-08-24T16:09:27;100260.59;;;21.93;78.19
12360;BME280;6244;51.460;7.090;2023-08-24T16:14:25;100247.22;;;21.51;80.33
12360;BME280;6244;51.460;7.090;2023-08-24T16:19:22;100233.63;;;21.10;82.73
12360;BME280;6244;51.460;7.090;2023-08-24T16:24:18;100201.94;;;20.90;85.14
12360;BME280;6244;51.460;7.090;2023-08-24T16:29:15;100188.03;;;20.78;85.08
12360;BME280;6244;51.460;7.090;2023-08-24T16:34:13;100183.34;;;20.72;87.47
12360;BME280;6244;51.460;7.090;2023-08-24T16:39:09;100187.72;;;20.81;88.45
12360;BME280;6244;51.460;7.090;2023-08-24T16:44:06;100173.19;;;21.27;87.24
12360;BME280;6244;51.460;7.090;2023-08-24T16:49:03;100160.59;;;21.37;83.03
12360;BME280;6244;51.460;7.090;2023-08-24T16:54:01;100137.81;;;21.67;83.66
12360;BME280;6244;51.460;7.090;2023-08-24T16:58:58;100140.69;;;21.82;82.16
12360;BME280;6244;51.460;7.090;2023-08-24T17:03:55;100122.75;;;21.50;80.78
12360;BME280;6244;51.460;7.090;2023-08-24T17:08:51;100110.13;;;21.60;80.48
12360;BME280;6244;51.460;7.090;2023-08-24T17:13:49;100088.50;;;21.96;80.83
12360;BME280;6244;51.460;7.090;2023-08-24T17:18:48;100079.13;;;21.92;80.70
12360;BME280;6244;51.460;7.090;2023-08-24T17:23:45;100074.66;;;22.09;79.00
12360;BME280;6244;51.460;7.090;2023-08-24T17:28:42;100059.94;;;21.96;79.42
12360;BME280;6244;51.460;7.090;2023-08-24T17:33:40;100064.63;;;22.19;78.66
12360;BME280;6244;51.460;7.090;2023-08-24T17:38:37;100061.25;;;22.58;78.01
12360;BME280;6244;51.460;7.090;2023-08-24T17:43:33;100069.38;;;22.80;77.42
12360;BME280;6244;51.460;7.090;2023-08-24T17:48:32;100063.75;;;22.83;78.05
12360;BME280;6244;51.460;7.090;2023-08-24T17:53:34;100077.94;;;22.68;77.50
12360;BME280;6244;51.460;7.090;2023-08-24T17:58:34;100091.53;;;22.09;80.24
12360;BME280;6244;51.460;7.090;2023-08-24T18:03:37;100101.53;;;22.40;78.82
12360;BME280;6244;51.460;7.090;2023-08-24T18:08:42;100098.19;;;22.54;78.49
12360;BME280;6244;51.460;7.090;2023-08-24T18:13:39;100092.69;;;22.39;79.03
12360;BME280;6244;51.460;7.090;2023-08-24T18:18:36;100084.81;;;22.54;79.24
12360;BME280;6244;51.460;7.090;2023-08-24T18:23:36;100091.34;;;22.43;78.23
12360;BME280;6244;51.460;7.090;2023-08-24T18:28:32;100068.63;;;22.39;77.96
12360;BME280;6244;51.460;7.090;2023-08-24T18:33:29;100064.63;;;22.27;77.17
12360;BME280;6244;51.460;7.090;2023-08-24T18:38:26;100080.66;;;22.19;77.44
12360;BME280;6244;51.460;7.090;2023-08-24T18:43:24;100077.50;;;22.23;76.54
12360;BME280;6244;51.460;7.090;2023-08-24T18:48:20;100075.81;;;22.06;77.63
12360;BME280;6244;51.460;7.090;2023-08-24T18:53:17;100062.59;;;21.96;77.50
12360;BME280;6244;51.460;7.090;2023-08-24T18:58:14;100074.16;;;22.13;76.33
12360;BME280;6244;51.460;7.090;2023-08-24T19:03:12;100088.34;;;22.06;76.37
12360;BME280;6244;51.460;7.090;2023-08-24T19:08:08;100080.81;;;22.01;77.24
12360;BME280;6244;51.460;7.090;2023-08-24T19:13:05;100064.78;;;22.01;77.53
12360;BME280;6244;51.460;7.090;2023-08-24T19:18:01;100075.94;;;21.88;76.38
12360;BME280;6244;51.460;7.090;2023-08-24T19:23:00;100052.94;;;21.95;76.02
12360;BME280;6244;51.460;7.090;2023-08-24T19:27:59;100048.06;;;21.91;76.20
12360;BME280;6244;51.460;7.090;2023-08-24T19:32:59;100070.38;;;21.49;77.05
12360;BME280;6244;51.460;7.090;2023-08-24T19:38:00;100059.38;;;21.60;77.50
12360;BME280;6244;51.460;7.090;2023-08-24T19:42:59;100072.22;;;21.65;76.80
12360;BME280;6244;51.460;7.090;2023-08-24T19:47:56;100060.88;;;21.63;77.20
12360;BME280;6244;51.460;7.090;2023-08-24T19:52:53;100068.69;;;21.56;77.09
12360;BME280;6244;51.460;7.090;2023-08-24T19:57:58;100066.41;;;21.61;77.46
12360;BME280;6244;51.460;7.090;2023-08-24T20:02:55;100061.03;;;21.53;77.76
12360;BME280;6244;51.460;7.090;2023-08-24T20:07:53;100037.66;;;21.55;78.76
12360;BME280;6244;51.460;7.090;2023-08-24T20:12:51;100028.34;;;21.17;79.04
12360;BME280;6244;51.460;7.090;2023-08-24T20:17:48;100039.31;;;20.98;79.34
12360;BME280;6244;51.460;7.090;2023-08-24T20:22:45;100035.91;;;20.88;79.19
12360;BME280;6244;51.460;7.090;2023-08-24T20:27:42;100051.38;;;20.76;80.52
12360;BME280;6244;51.460;7.090;2023-08-24T20:32:40;100050.66;;;21.08;79.24
12360;BME280;6244;51.460;7.090;2023-08-24T20:37:37;100033.31;;;21.04;78.85
12360;BME280;6244;51.460;7.090;2023-08-24T20:42:34;100023.41;;;20.54;80.47
12360;BME280;6244;51.460;7.090;2023-08-24T20:47:30;100025.19;;;20.28;82.83
12360;BME280;6244;51.460;7.090;2023-08-24T20:52:28;100030.53;;;20.71;82.55
12360;BME280;6244;51.460;7.090;2023-08-24T20:57:25;100021.97;;;21.02;80.13
12360;BME280;6244;51.460;7.090;2023-08-24T21:02:22;100030.22;;;21.25;79.34
12360;BME280;6244;51.460;7.090;2023-08-24T21:07:19;100029.66;;;21.05;78.89
12360;BME280;6244;51.460;7.090;2023-08-24T21:12:18;100040.88;;;21.17;78.60
12360;BME280;6244;51.460;7.090;2023-08-24T21:17:15;100054.78;;;21.28;77.70
12360;BME280;6244;51.460;7.090;2023-08-24T21:22:12;100060.13;;;21.28;77.05
12360;BME280;6244;51.460;7.090;2023-08-24T21:27:08;100079.22;;;21.16;76.83
12360;BME280;6244;51.460;7.090;2023-08-24T21:32:06;100106.19;;;20.78;78.81
12360;BME280;6244;51.460;7.090;2023-08-24T21:37:03;100103.53;;;20.78;80.05
12360;BME280;6244;51.460;7.090;2023-08-24T21:42:00;100116.91;;;21.13;78.69
12360;BME280;6244;51.460;7.090;2023-08-24T21:46:57;100127.28;;;20.90;79.22
12360;BME280;6244;51.460;7.090;2023-08-24T21:51:55;100117.53;;;21.06;78.38
12360;BME280;6244;51.460;7.090;2023-08-24T21:56:51;100114.19;;;21.04;78.56
12360;BME280;6244;51.460;7.090;2023-08-24T22:01:48;100106.41;;;20.85;78.04
12360;BME280;6244;51.460;7.090;2023-08-24T22:06:45;100098.69;;;20.48;79.58
12360;BME280;6244;51.460;7.090;2023-08-24T22:11:43;100099.56;;;20.21;80.78
12360;BME280;6244;51.460;7.090;2023-08-24T22:16:39;100082.94;;;20.01;81.97
12360;BME280;6244;51.460;7.090;2023-08-24T22:21:36;100072.28;;;20.01;82.12
12360;BME280;6244;51.460;7.090;2023-08-24T22:26:32;100087.88;;;19.96;82.05
12360;BME280;6244;51.460;7.090;2023-08-24T22:31:30;100093.19;;;19.96;82.43
12360;BME280;6244;51.460;7.090;2023-08-24T22:36:27;100060.31;;;20.23;81.60
12360;BME280;6244;51.460;7.090;2023-08-24T22:41:24;100049.91;;;20.12;81.00
12360;BME280;6244;51.460;7.090;2023-08-24T22:46:20;100041.06;;;20.11;82.06
12360;BME280;6244;51.460;7.090;2023-08-24T22:51:19;100063.47;;;20.44;81.42
12360;BME280;6244;51.460;7.090;2023-08-24T22:56:15;100058.50;;;20.23;80.27
12360;BME280;6244;51.460;7.090;2023-08-24T23:01:15;100068.47;;;20.04;81.63
12360;BME280;6244;51.460;7.090;2023-08-24T23:06:13;100079.50;;;20.09;81.34
12360;BME280;6244;51.460;7.090;2023-08-24T23:11:12;100053.38;;;20.48;80.86
12360;BME280;6244;51.460;7.090;2023-08-24T23:16:08;100047.56;;;20.52;79.59
12360;BME280;6244;51.460;7.090;2023-08-24T23:21:05;100053.56;;;20.11;80.85
12360;BME280;6244;51.460;7.090;2023-08-24T23:26:02;100046.00;;;20.06;81.15
12360;BME280;6244;51.460;7.090;2023-08-24T23:31:01;100042.38;;;19.89;81.92
12360;BME280;6244;51.460;7.090;2023-08-24T23:35:59;100031.91;;;19.88;82.44
12360;BME280;6244;51.460;7.090;2023-08-24T23:40:56;100032.78;;;19.97;82.89
12360;BME280;6244;51.460;7.090;2023-08-24T23:45:53;100027.28;;;20.16;81.88
12360;BME280;6244;51.460;7.090;2023-08-24T23:50:51;100020.63;;;20.20;81.60
12360;BME280;6244;51.460;7.090;2023-08-24T23:55:48;100006.00;;;20.42;80.39
